createdAt,value
2018-09-05T00:00:41.779Z,99626.72
2018-09-05T00:03:09.313Z,99629.93
2018-09-05T00:05:36.889Z,99627.81
2018-09-05T00:08:04.414Z,99629.39
2018-09-05T00:10:31.988Z,99620.39
2018-09-05T00:12:59.547Z,99622.34
2018-09-05T00:15:27.188Z,99624.80
2018-09-05T00:17:54.718Z,99613.91
2018-09-05T00:20:22.259Z,99620.09
2018-09-05T00:22:49.860Z,99617.82
2018-09-05T00:25:17.443Z,99619.34
2018-09-05T00:27:45.001Z,99619.27
2018-09-05T00:30:13.656Z,99609.48
2018-09-05T00:32:41.202Z,99615.26
2018-09-05T00:35:08.816Z,99613.80
2018-09-05T00:37:36.377Z,99610.06
2018-09-05T00:40:03.950Z,99605.70
2018-09-05T00:42:31.485Z,99608.28
2018-09-05T00:44:59.072Z,99604.08
2018-09-05T00:47:26.607Z,99603.33
2018-09-05T00:49:54.266Z,99606.25
2018-09-05T00:52:21.806Z,99605.06
2018-09-05T00:54:49.348Z,99608.31
2018-09-05T00:57:16.934Z,99597.91
2018-09-05T00:59:44.498Z,99607.34
2018-09-05T01:02:12.079Z,99610.42
2018-09-05T01:04:39.825Z,99606.97
2018-09-05T01:07:07.418Z,99602.67
2018-09-05T01:09:34.950Z,99610.20
2018-09-05T01:12:02.527Z,99606.18
2018-09-05T01:14:30.043Z,99607.89
2018-09-05T01:16:57.606Z,99606.66
2018-09-05T01:19:25.183Z,99609.39
2018-09-05T01:21:52.719Z,99605.88
2018-09-05T01:24:20.427Z,99609.79
2018-09-05T01:26:48.044Z,99603.59
2018-09-05T01:29:15.620Z,99609.30
2018-09-05T01:31:43.176Z,99612.63
2018-09-05T01:34:10.752Z,99600.52
2018-09-05T01:36:38.329Z,99611.86
2018-09-05T01:39:05.841Z,99605.08
2018-09-05T01:41:33.373Z,99604.27
2018-09-05T01:44:01.041Z,99607.67
2018-09-05T01:46:28.638Z,99604.58
2018-09-05T01:48:56.248Z,99600.62
2018-09-05T01:51:23.823Z,99600.16
2018-09-05T01:53:51.419Z,99602.02
2018-09-05T01:56:19.005Z,99603.05
2018-09-05T01:58:46.699Z,99598.49
2018-09-05T02:01:14.246Z,99601.87
2018-09-05T02:03:41.778Z,99596.06
2018-09-05T02:06:09.352Z,99603.64
2018-09-05T02:08:37.193Z,99599.25
2018-09-05T02:11:04.868Z,99596.65
2018-09-05T02:13:32.432Z,99595.58
2018-09-05T02:15:59.957Z,99599.48
2018-09-05T02:18:27.541Z,99590.61
2018-09-05T02:20:55.101Z,99596.22
2018-09-05T02:23:22.672Z,99593.27
2018-09-05T02:25:50.263Z,99591.17
2018-09-05T02:28:18.064Z,99596.48
2018-09-05T02:30:45.642Z,99595.05
2018-09-05T02:33:13.254Z,99588.23
2018-09-05T02:35:40.825Z,99588.80
2018-09-05T02:38:08.396Z,99596.23
2018-09-05T02:40:36.005Z,99597.26
2018-09-05T02:43:03.528Z,99595.53
2018-09-05T02:45:31.181Z,99594.92
2018-09-05T02:47:58.708Z,99597.66
2018-09-05T02:50:26.413Z,99590.37
2018-09-05T02:52:53.946Z,99591.66
2018-09-05T02:55:21.531Z,99594.30
2018-09-05T02:57:49.061Z,99593.99
2018-09-05T03:00:16.651Z,99601.02
2018-09-05T03:02:44.183Z,99599.13
2018-09-05T03:05:11.774Z,99595.94
2018-09-05T03:07:39.314Z,99600.95
2018-09-05T03:10:06.872Z,99601.88
2018-09-05T03:12:34.475Z,99599.75
2018-09-05T03:15:02.010Z,99601.92
2018-09-05T03:17:29.593Z,99599.97
2018-09-05T03:19:57.206Z,99601.38
2018-09-05T03:22:25.833Z,99595.94
2018-09-05T03:24:53.375Z,99600.16
2018-09-05T03:27:20.941Z,99599.62
2018-09-05T03:29:48.473Z,99596.02
2018-09-05T03:32:16.122Z,99606.38
2018-09-05T03:34:43.618Z,99605.08
2018-09-05T03:37:11.135Z,99600.39
2018-09-05T03:39:38.728Z,99599.04
2018-09-05T03:42:06.255Z,99606.22
2018-09-05T03:44:33.844Z,99610.86
2018-09-05T03:47:01.422Z,99605.81
2018-09-05T03:49:28.957Z,99604.41
2018-09-05T03:51:56.544Z,99604.98
2018-09-05T03:54:24.068Z,99604.08
2018-09-05T03:56:51.794Z,99606.06
2018-09-05T03:59:19.310Z,99609.09
2018-09-05T04:01:47.018Z,99607.75
2018-09-05T04:04:14.566Z,99610.89
2018-09-05T04:06:42.132Z,99616.50
2018-09-05T04:09:09.704Z,99610.09
2018-09-05T04:11:37.274Z,99607.59
2018-09-05T04:14:04.806Z,99608.73
2018-09-05T04:16:32.380Z,99613.55
2018-09-05T04:18:59.932Z,99606.03
2018-09-05T04:21:27.493Z,99604.09
2018-09-05T04:23:55.037Z,99616.41
2018-09-05T04:26:22.613Z,99606.24
2018-09-05T04:28:50.193Z,99602.89
2018-09-05T04:31:17.767Z,99599.02
2018-09-05T04:33:45.344Z,99602.69
2018-09-05T04:36:13.622Z,99605.59
2018-09-05T04:38:41.349Z,99607.53
2018-09-05T04:41:08.869Z,99608.39
2018-09-05T04:43:36.442Z,99609.47
2018-09-05T04:46:04.051Z,99603.36
2018-09-05T04:48:31.624Z,99615.73
2018-09-05T04:50:59.197Z,99603.31
2018-09-05T04:53:26.772Z,99609.91
2018-09-05T04:55:54.300Z,99602.38
2018-09-05T04:58:21.864Z,99604.83
2018-09-05T05:00:49.411Z,99601.78
2018-09-05T05:03:16.969Z,99603.03
2018-09-05T05:05:44.516Z,99600.88
2018-09-05T05:08:12.091Z,99608.62
2018-09-05T05:10:39.868Z,99605.20
2018-09-05T05:13:07.462Z,99614.39
2018-09-05T05:15:35.055Z,99608.78
2018-09-05T05:18:02.616Z,99622.55
2018-09-05T05:20:30.195Z,99622.98
2018-09-05T05:22:57.781Z,99614.67
2018-09-05T05:25:25.294Z,99622.89
2018-09-05T05:27:52.888Z,99625.66
2018-09-05T05:30:20.467Z,99628.75
2018-09-05T05:32:48.156Z,99632.23
2018-09-05T05:35:15.577Z,99629.71
2018-09-05T05:37:43.105Z,99621.88
2018-09-05T05:40:10.697Z,99633.13
2018-09-05T05:42:42.043Z,99634.48
2018-09-05T05:45:09.652Z,99636.92
2018-09-05T05:47:37.199Z,99641.45
2018-09-05T05:50:04.741Z,99645.13
2018-09-05T05:52:35.577Z,99644.86
2018-09-05T05:55:03.180Z,99647.45
2018-09-05T05:57:30.731Z,99645.56
2018-09-05T05:59:58.305Z,99642.67
2018-09-05T06:02:25.838Z,99647.16
2018-09-05T06:04:53.397Z,99642.34
2018-09-05T06:07:20.935Z,99651.37
2018-09-05T06:09:48.516Z,99644.77
2018-09-05T06:12:16.181Z,99645.22
2018-09-05T06:14:43.709Z,99650.78
2018-09-05T06:17:11.432Z,99647.48
2018-09-05T06:19:39.128Z,99651.75
2018-09-05T06:22:06.721Z,99648.34
2018-09-05T06:24:34.448Z,99647.95
2018-09-05T06:27:03.942Z,99661.69
2018-09-05T06:29:31.530Z,99650.17
2018-09-05T06:31:59.314Z,99655.63
2018-09-05T06:34:27.868Z,99653.52
2018-09-05T06:36:55.407Z,99655.88
2018-09-05T06:39:23.148Z,99656.53
2018-09-05T06:41:50.866Z,99653.02
2018-09-05T06:44:18.588Z,99652.59
2018-09-05T06:46:50.268Z,99657.67
2018-09-05T06:51:44.544Z,99662.58
2018-09-05T06:54:12.307Z,99660.02
2018-09-05T06:56:40.148Z,99661.74
2018-09-05T06:59:07.993Z,99663.78
2018-09-05T07:01:36.814Z,99660.70
2018-09-05T07:04:05.651Z,99666.48
2018-09-05T07:06:33.280Z,99665.49
2018-09-05T07:09:06.267Z,99668.95
2018-09-05T07:11:35.011Z,99666.78
2018-09-05T07:14:08.279Z,99673.12
2018-09-05T07:16:36.319Z,99665.83
2018-09-05T07:19:04.145Z,99667.01
2018-09-05T07:21:31.829Z,99666.80
2018-09-05T07:23:59.530Z,99661.00
2018-09-05T07:26:28.308Z,99669.91
2018-09-05T07:28:55.983Z,99669.95
2018-09-05T07:31:26.881Z,99667.50
2018-09-05T07:33:56.740Z,99667.93
2018-09-05T07:36:28.987Z,99674.95
2018-09-05T07:38:56.548Z,99678.33
2018-09-05T07:41:24.275Z,99675.16
2018-09-05T07:43:53.094Z,99677.34
2018-09-05T07:46:24.427Z,99679.27
2018-09-05T07:48:51.998Z,99679.44
2018-09-05T07:51:21.467Z,99674.49
2018-09-05T07:53:49.079Z,99673.00
2018-09-05T07:56:20.169Z,99665.84
2018-09-05T07:58:51.298Z,99663.17
2018-09-05T08:01:19.022Z,99664.03
2018-09-05T08:03:46.563Z,99668.55
2018-09-05T08:06:14.120Z,99669.31
2018-09-05T08:08:42.667Z,99664.75
2018-09-05T08:11:12.231Z,99667.06
2018-09-05T08:13:40.089Z,99663.25
2018-09-05T08:16:07.813Z,99667.89
2018-09-05T08:18:37.433Z,99668.03
2018-09-05T08:21:05.130Z,99666.75
2018-09-05T08:23:32.661Z,99665.92
2018-09-05T08:26:00.239Z,99665.95
2018-09-05T08:28:27.769Z,99673.61
2018-09-05T08:30:55.367Z,99664.63
2018-09-05T08:33:22.901Z,99661.15
2018-09-05T08:35:50.818Z,99655.47
2018-09-05T08:38:19.348Z,99659.48
2018-09-05T08:40:50.124Z,99657.14
2018-09-05T08:43:29.500Z,99657.06
2018-09-05T08:45:57.128Z,99658.87
2018-09-05T08:48:24.844Z,99657.22
2018-09-05T08:50:52.302Z,99654.66
2018-09-05T08:53:21.879Z,99651.07
2018-09-05T08:55:49.526Z,99649.80
2018-09-05T08:58:17.087Z,99652.55
2018-09-05T09:00:49.406Z,99647.11
2018-09-05T09:03:17.109Z,99648.09
2018-09-05T09:05:44.704Z,99650.59
2018-09-05T09:08:12.427Z,99648.23
2018-09-05T09:10:44.760Z,99651.70
2018-09-05T09:13:12.557Z,99657.58
2018-09-05T09:15:40.095Z,99654.94
2018-09-05T09:18:08.698Z,99659.28
2018-09-05T09:20:39.265Z,99657.30
2018-09-05T09:23:06.821Z,99651.70
2018-09-05T09:25:34.416Z,99654.51
2018-09-05T09:28:02.087Z,99651.08
2018-09-05T09:30:30.873Z,99649.25
2018-09-05T09:33:00.082Z,99647.91
2018-09-05T09:35:28.089Z,99646.69
2018-09-05T09:38:00.363Z,99641.92
2018-09-05T09:40:29.969Z,99641.27
2018-09-05T09:43:00.811Z,99641.91
2018-09-05T09:45:28.610Z,99636.19
2018-09-05T09:47:56.327Z,99634.95
2018-09-05T09:50:28.472Z,99636.75
2018-09-05T09:52:57.314Z,99634.73
2018-09-05T09:55:27.806Z,99635.70
2018-09-05T09:57:56.429Z,99636.84
2018-09-05T10:00:24.228Z,99633.31
2018-09-05T10:03:12.639Z,99630.92
2018-09-05T10:05:58.095Z,99625.64
2018-09-05T10:08:25.683Z,99622.43
2018-09-05T10:10:55.718Z,99622.44
2018-09-05T10:13:25.282Z,99619.72
2018-09-05T10:15:52.845Z,99622.55
2018-09-05T10:18:20.403Z,99616.70
2018-09-05T10:20:48.000Z,99613.79
2018-09-05T10:23:16.692Z,99609.48
2018-09-05T10:25:44.265Z,99612.34
2018-09-05T10:28:11.943Z,99617.03
2018-09-05T10:30:39.669Z,99609.41
2018-09-05T10:33:07.207Z,99605.32
2018-09-05T10:35:34.771Z,99601.59
2018-09-05T10:38:04.484Z,99603.58
2018-09-05T10:40:38.093Z,99605.67
2018-09-05T10:43:10.440Z,99603.38
2018-09-05T10:45:41.940Z,99600.23
2018-09-05T10:48:09.522Z,99602.33
2018-09-05T10:50:37.129Z,99602.72
2018-09-05T10:53:05.043Z,99600.55
2018-09-05T10:55:33.761Z,99603.45
2018-09-05T10:58:01.411Z,99600.73
2018-09-05T11:00:32.777Z,99603.89
2018-09-05T11:03:00.350Z,99593.83
2018-09-05T11:05:28.085Z,99591.34
2018-09-05T11:07:55.681Z,99590.17
2018-09-05T11:10:23.361Z,99587.77
2018-09-05T11:12:51.057Z,99583.67
2018-09-05T11:15:18.690Z,99581.50
2018-09-05T11:17:46.333Z,99581.25
2018-09-05T11:20:14.075Z,99575.70
2018-09-05T11:22:42.050Z,99577.58
2018-09-05T11:25:12.326Z,99575.98
2018-09-05T11:27:40.691Z,99568.31
2018-09-05T11:30:08.525Z,99571.17
2018-09-05T11:32:36.579Z,99568.64
2018-09-05T11:35:04.801Z,99572.61
2018-09-05T11:37:32.985Z,99566.42
2018-09-05T11:40:01.222Z,99562.22
2018-09-05T11:42:29.261Z,99566.17
2018-09-05T11:44:58.163Z,99560.99
2018-09-05T11:47:26.159Z,99547.58
2018-09-05T11:49:57.771Z,99555.12
2018-09-05T11:52:25.877Z,99547.05
2018-09-05T11:54:53.928Z,99547.66
2018-09-05T11:57:22.298Z,99550.13
2018-09-05T11:59:50.326Z,99552.22
2018-09-05T12:02:19.216Z,99549.97
2018-09-05T12:04:47.433Z,99554.65
2018-09-05T12:07:15.443Z,99551.28
2018-09-05T12:09:44.378Z,99544.94
2018-09-05T12:12:13.542Z,99548.48
2018-09-05T12:14:41.399Z,99539.03
2018-09-05T12:17:09.301Z,99548.70
2018-09-05T12:19:39.215Z,99547.28
2018-09-05T12:22:08.189Z,99544.32
2018-09-05T12:24:37.137Z,99544.32
2018-09-05T12:27:08.221Z,99546.60
2018-09-05T12:29:36.183Z,99546.70
2018-09-05T12:32:04.180Z,99543.23
2018-09-05T12:34:36.570Z,99546.39
2018-09-05T12:37:04.631Z,99543.83
2018-09-05T12:39:32.739Z,99539.08
2018-09-05T12:42:00.577Z,99544.08
2018-09-05T12:44:28.495Z,99534.09
2018-09-05T12:46:58.320Z,99537.59
2018-09-05T12:49:26.080Z,99532.83
2018-09-05T12:51:53.845Z,99530.78
2018-09-05T12:54:21.461Z,99526.48
2018-09-05T12:56:50.065Z,99523.17
2018-09-05T12:59:17.993Z,99528.28
2018-09-05T13:01:45.569Z,99523.11
2018-09-05T13:04:13.749Z,99521.41
2018-09-05T13:06:42.376Z,99526.04
2018-09-05T13:09:10.120Z,99523.64
2018-09-05T13:11:37.934Z,99525.20
2018-09-05T13:14:05.735Z,99521.06
2018-09-05T13:16:33.287Z,99522.34
2018-09-05T13:19:00.883Z,99522.70
2018-09-05T13:21:28.488Z,99522.94
2018-09-05T13:23:56.147Z,99522.07
2018-09-05T13:26:23.929Z,99518.09
2018-09-05T13:28:51.713Z,99515.05
2018-09-05T13:31:19.490Z,99510.88
2018-09-05T13:33:47.194Z,99511.46
2018-09-05T13:36:14.743Z,99509.80
2018-09-05T13:38:42.322Z,99506.16
2018-09-05T13:41:09.904Z,99508.55
2018-09-05T13:43:37.520Z,99505.55
2018-09-05T13:46:05.093Z,99503.44
2018-09-05T13:48:32.883Z,99502.10
2018-09-05T13:51:01.582Z,99504.44
2018-09-05T13:53:31.264Z,99497.80
2018-09-05T13:55:58.900Z,99499.02
2018-09-05T13:58:26.480Z,99497.26
2018-09-05T14:00:54.424Z,99494.62
2018-09-05T14:03:22.206Z,99500.17
2018-09-05T14:05:49.926Z,99493.52
2018-09-05T14:08:17.807Z,99489.09
2018-09-05T14:10:45.794Z,99488.57
2018-09-05T14:13:13.821Z,99487.73
2018-09-05T14:15:41.735Z,99489.67
2018-09-05T14:18:09.545Z,99489.30
2018-09-05T14:20:37.477Z,99490.45
2018-09-05T14:23:05.100Z,99486.36
2018-09-05T14:25:33.064Z,99484.19
2018-09-05T14:28:02.960Z,99483.09
2018-09-05T14:30:31.724Z,99486.33
2018-09-05T14:33:00.159Z,99480.19
2018-09-05T14:35:27.943Z,99477.58
2018-09-05T14:37:55.843Z,99476.06
2018-09-05T14:40:23.406Z,99477.46
2018-09-05T14:42:51.111Z,99472.98
2018-09-05T14:45:18.873Z,99468.73
2018-09-05T14:47:46.825Z,99466.97
2018-09-05T14:50:14.533Z,99466.33
2018-09-05T14:52:42.084Z,99469.91
2018-09-05T14:55:09.939Z,99464.22
2018-09-05T14:57:37.690Z,99464.02
2018-09-05T15:00:05.562Z,99469.58
2018-09-05T15:02:34.297Z,99465.03
2018-09-05T15:05:02.057Z,99454.23
2018-09-05T15:07:30.069Z,99447.90
2018-09-05T15:09:57.854Z,99449.86
2018-09-05T15:12:25.690Z,99450.92
2018-09-05T15:14:53.635Z,99448.75
2018-09-05T15:17:21.469Z,99448.41
2018-09-05T15:19:49.498Z,99444.75
2018-09-05T15:22:17.363Z,99438.69
2018-09-05T15:24:45.041Z,99438.69
2018-09-05T15:27:12.787Z,99437.40
2018-09-05T15:29:40.451Z,99435.66
2018-09-05T15:32:08.054Z,99436.59
2018-09-05T15:34:35.605Z,99436.51
2018-09-05T15:37:03.230Z,99434.42
2018-09-05T15:39:30.854Z,99429.42
2018-09-05T15:41:58.445Z,99433.25
2018-09-05T15:44:26.190Z,99422.76
2018-09-05T15:46:53.807Z,99424.72
2018-09-05T15:49:21.331Z,99423.71
2018-09-05T15:51:48.866Z,99422.03
2018-09-05T15:54:16.440Z,99419.01
2018-09-05T15:56:44.007Z,99424.17
2018-09-05T15:59:11.548Z,99418.56
2018-09-05T16:01:39.126Z,99417.62
2018-09-05T16:04:06.689Z,99419.86
2018-09-05T16:06:34.207Z,99411.22
2018-09-05T16:09:01.787Z,99411.63
2018-09-05T16:11:29.302Z,99411.81
2018-09-05T16:13:56.952Z,99403.78
2018-09-05T16:16:24.527Z,99404.41
2018-09-05T16:18:52.127Z,99407.52
2018-09-05T16:21:19.704Z,99403.30
2018-09-05T16:23:47.238Z,99399.30
2018-09-05T16:26:14.853Z,99396.56
2018-09-05T16:28:42.388Z,99398.50
2018-09-05T16:31:10.954Z,99399.52
2018-09-05T16:33:38.521Z,99400.95
2018-09-05T16:36:07.223Z,99399.83
2018-09-05T16:38:34.725Z,99396.68
2018-09-05T16:41:02.295Z,99398.52
2018-09-05T16:43:29.875Z,99395.75
2018-09-05T16:45:57.480Z,99390.13
2018-09-05T16:48:25.033Z,99387.27
2018-09-05T16:50:52.677Z,99388.80
2018-09-05T16:53:20.262Z,99393.53
2018-09-05T16:55:48.001Z,99388.24
2018-09-05T16:58:15.585Z,99384.84
2018-09-05T17:00:43.263Z,99392.46
2018-09-05T17:03:10.839Z,99383.05
2018-09-05T17:05:38.429Z,99386.00
2018-09-05T17:08:05.965Z,99391.16
2018-09-05T17:10:33.533Z,99387.83
2018-09-05T17:13:01.441Z,99392.42
2018-09-05T17:15:28.977Z,99391.48
2018-09-05T17:17:56.537Z,99394.93
2018-09-05T17:20:24.105Z,99393.05
2018-09-05T17:22:51.698Z,99394.71
2018-09-05T17:25:19.310Z,99401.94
2018-09-05T17:27:46.840Z,99396.22
2018-09-05T17:30:14.912Z,99396.05
2018-09-05T17:32:42.424Z,99403.37
2018-09-05T17:35:10.012Z,99411.35
2018-09-05T17:37:37.620Z,99402.66
2018-09-05T17:40:05.330Z,99407.30
2018-09-05T17:42:32.863Z,99405.16
2018-09-05T17:45:00.402Z,99407.73
2018-09-05T17:47:28.060Z,99407.98
2018-09-05T17:49:55.572Z,99408.67
2018-09-05T17:52:23.101Z,99409.50
2018-09-05T17:54:50.664Z,99405.40
2018-09-05T17:57:18.224Z,99406.52
2018-09-05T17:59:45.924Z,99413.83
2018-09-05T18:02:13.617Z,99401.92
2018-09-05T18:04:41.205Z,99406.15
2018-09-05T18:07:08.745Z,99409.17
2018-09-05T18:09:39.501Z,99401.47
2018-09-05T18:12:07.069Z,99395.86
2018-09-05T18:14:34.664Z,99407.13
2018-09-05T18:17:02.260Z,99408.48
2018-09-05T18:19:29.823Z,99409.33
2018-09-05T18:21:57.361Z,99406.01
2018-09-05T18:24:24.988Z,99410.02
2018-09-05T18:26:52.487Z,99409.33
2018-09-05T18:29:20.101Z,99408.98
2018-09-05T18:31:47.632Z,99406.30
2018-09-05T18:34:15.335Z,99413.74
2018-09-05T18:36:42.913Z,99414.06
2018-09-05T18:39:10.441Z,99411.54
2018-09-05T18:41:38.018Z,99413.02
2018-09-05T18:44:05.585Z,99419.14
2018-09-05T18:46:33.165Z,99412.86
2018-09-05T18:49:00.806Z,99415.88
2018-09-05T18:51:28.389Z,99411.93
2018-09-05T18:53:55.923Z,99412.91
2018-09-05T18:56:24.613Z,99413.22
2018-09-05T18:58:52.344Z,99411.25
2018-09-05T19:01:19.929Z,99408.92
2018-09-05T19:03:48.525Z,99418.96
2018-09-05T19:06:17.157Z,99419.15
2018-09-05T19:08:44.739Z,99413.09
2018-09-05T19:11:12.442Z,99416.67
2018-09-05T19:13:40.219Z,99408.84
2018-09-05T19:16:07.750Z,99407.37
2018-09-05T19:18:36.302Z,99407.25
2018-09-05T19:21:03.871Z,99399.45
2018-09-05T19:23:31.553Z,99396.94
2018-09-05T19:25:59.312Z,99398.09
2018-09-05T19:28:27.082Z,99398.30
2018-09-05T19:30:54.828Z,99393.30
2018-09-05T19:33:22.382Z,99395.27
2018-09-05T19:35:50.063Z,99396.55
2018-09-05T19:38:17.898Z,99392.64
2018-09-05T19:40:47.745Z,99388.27
2018-09-05T19:43:16.747Z,99391.70
2018-09-05T19:45:45.864Z,99397.91
2018-09-05T19:48:13.913Z,99394.12
2018-09-05T19:50:41.809Z,99394.95
2018-09-05T19:53:09.888Z,99396.52
2018-09-05T19:55:37.800Z,99396.31
2018-09-05T19:58:06.689Z,99399.03
2018-09-05T20:00:34.806Z,99398.41
2018-09-05T20:03:03.028Z,99395.89
2018-09-05T20:05:30.947Z,99391.59
2018-09-05T20:07:59.049Z,99387.44
2018-09-05T20:10:26.738Z,99401.82
2018-09-05T20:12:54.503Z,99397.74
2018-09-05T20:15:22.375Z,99390.92
2018-09-05T20:17:50.178Z,99396.31
2018-09-05T20:20:18.004Z,99390.31
2018-09-05T20:22:45.834Z,99392.17
2018-09-05T20:25:13.686Z,99395.85
2018-09-05T20:27:42.705Z,99393.50
2018-09-05T20:30:14.047Z,99393.67
2018-09-05T20:32:42.477Z,99392.77
2018-09-05T20:35:10.644Z,99398.01
2018-09-05T20:37:38.762Z,99388.75
2018-09-05T20:40:06.659Z,99391.61
2018-09-05T20:42:34.893Z,99389.71
2018-09-05T20:45:02.519Z,99389.91
2018-09-05T20:47:30.366Z,99392.45
2018-09-05T20:49:58.411Z,99387.60
2018-09-05T20:52:26.262Z,99393.78
2018-09-05T20:54:54.185Z,99391.47
2018-09-05T20:57:22.085Z,99389.30
2018-09-05T20:59:50.015Z,99384.80
2018-09-05T21:02:17.745Z,99383.55
2018-09-05T21:04:45.686Z,99385.83
2018-09-05T21:07:13.578Z,99382.08
2018-09-05T21:09:41.322Z,99381.25
2018-09-05T21:12:09.167Z,99377.06
2018-09-05T21:14:37.089Z,99378.00
2018-09-05T21:17:05.676Z,99374.14
2018-09-05T21:19:33.418Z,99375.03
2018-09-05T21:22:01.151Z,99371.80
2018-09-05T21:24:28.793Z,99370.63
2018-09-05T21:26:56.676Z,99372.84
2018-09-05T21:29:27.861Z,99370.75
2018-09-05T21:31:55.687Z,99362.11
2018-09-05T21:34:24.783Z,99363.23
2018-09-05T21:36:52.512Z,99359.91
2018-09-05T21:39:20.065Z,99355.20
2018-09-05T21:41:47.692Z,99357.91
2018-09-05T21:44:15.244Z,99354.89
2018-09-05T21:46:42.832Z,99355.62
2018-09-05T21:49:10.363Z,99349.98
2018-09-05T21:51:37.921Z,99352.29
2018-09-05T21:54:10.208Z,99354.16
2018-09-05T21:56:37.772Z,99347.38
2018-09-05T21:59:05.372Z,99352.69
2018-09-05T22:01:32.894Z,99351.77
2018-09-05T22:04:00.995Z,99352.19
2018-09-05T22:06:28.676Z,99350.92
2018-09-05T22:08:56.248Z,99346.25
2018-09-05T22:11:23.991Z,99347.84
2018-09-05T22:13:51.576Z,99354.07
2018-09-05T22:16:19.151Z,99350.53
2018-09-05T22:18:46.715Z,99350.28
2018-09-05T22:21:14.265Z,99346.02
2018-09-05T22:23:41.792Z,99351.09
2018-09-05T22:26:09.392Z,99350.62
2018-09-05T22:28:36.970Z,99351.55
2018-09-05T22:31:04.513Z,99350.72
2018-09-05T22:33:32.231Z,99341.39
2018-09-05T22:35:59.777Z,99350.62
2018-09-05T22:38:27.336Z,99341.62
2018-09-05T22:40:54.923Z,99340.66
2018-09-05T22:47:00.776Z,99341.56
2018-09-05T22:49:28.343Z,99343.70
2018-09-05T22:52:10.791Z,99338.58
2018-09-05T22:54:54.970Z,99342.56
2018-09-05T22:57:42.335Z,99330.05
2018-09-05T23:00:09.878Z,99329.06
2018-09-05T23:02:37.536Z,99327.30
2018-09-05T23:05:05.421Z,99324.27
2018-09-05T23:07:33.285Z,99321.08
2018-09-05T23:10:12.720Z,99312.97
2018-09-05T23:13:01.401Z,99314.73
2018-09-05T23:15:41.033Z,99316.41
2018-09-05T23:18:29.108Z,99305.63
2018-09-05T23:20:57.091Z,99313.69
2018-09-05T23:23:36.589Z,99312.48
2018-09-05T23:26:04.526Z,99314.28
2018-09-05T23:28:32.496Z,99310.42
2018-09-05T23:31:00.371Z,99307.29
2018-09-05T23:33:28.415Z,99306.84
2018-09-05T23:35:56.296Z,99308.09
2018-09-05T23:38:24.195Z,99306.52
2018-09-05T23:40:52.029Z,99303.80
2018-09-05T23:43:19.665Z,99311.98
2018-09-05T23:45:47.190Z,99315.84
2018-09-05T23:48:15.005Z,99312.80
2018-09-05T23:50:43.356Z,99311.20
2018-09-05T23:53:12.063Z,99320.11
2018-09-05T23:55:39.901Z,99310.92
2018-09-05T23:58:07.775Z,99314.67
